sensor_id;sensor_type;location;lat;lon;timestamp;pressure;altitude;pressure_sealevel;temperature
11849;BMP180;5983;49.966;8.052;2023-05-14T00:00:19;100687.00;;;11.30
11849;BMP180;5983;49.966;8.052;2023-05-14T00:02:47;100686.00;;;11.30
11849;BMP180;5983;49.966;8.052;2023-05-14T00:05:14;100682.00;;;11.30
11849;BMP180;5983;49.966;8.052;2023-05-14T00:07:41;100683.00;;;11.30
11849;BMP180;5983;49.966;8.052;2023-05-14T00:10:08;100678.00;;;11.30
11849;BMP180;5983;49.966;8.052;2023-05-14T00:12:35;100682.00;;;11.30
11849;BMP180;5983;49.966;8.052;2023-05-14T00:15:02;100681.00;;;11.30
11849;BMP180;5983;49.966;8.052;2023-05-14T00:17:29;100679.00;;;11.30
11849;BMP180;5983;49.966;8.052;2023-05-14T00:19:57;100680.00;;;11.30
11849;BMP180;5983;49.966;8.052;2023-05-14T00:22:24;100676.00;;;11.30
11849;BMP180;5983;49.966;8.052;2023-05-14T00:24:51;100674.00;;;11.30
11849;BMP180;5983;49.966;8.052;2023-05-14T00:27:17;100680.00;;;11.30
11849;BMP180;5983;49.966;8.052;2023-05-14T00:29:44;100671.00;;;11.20
11849;BMP180;5983;49.966;8.052;2023-05-14T00:32:11;100666.00;;;11.20
11849;BMP180;5983;49.966;8.052;2023-05-14T00:34:37;100679.00;;;11.20
11849;BMP180;5983;49.966;8.052;2023-05-14T00:37:06;100671.00;;;11.20
11849;BMP180;5983;49.966;8.052;2023-05-14T00:39:33;100667.00;;;11.20
11849;BMP180;5983;49.966;8.052;2023-05-14T00:42:00;100666.00;;;11.20
11849;BMP180;5983;49.966;8.052;2023-05-14T00:44:27;100659.00;;;11.10
11849;BMP180;5983;49.966;8.052;2023-05-14T00:46:53;100658.00;;;11.10
11849;BMP180;5983;49.966;8.052;2023-05-14T00:49:20;100662.00;;;11.10
11849;BMP180;5983;49.966;8.052;2023-05-14T00:51:47;100655.00;;;11.10
11849;BMP180;5983;49.966;8.052;2023-05-14T00:54:16;100660.00;;;11.10
11849;BMP180;5983;49.966;8.052;2023-05-14T00:56:44;100658.00;;;11.10
11849;BMP180;5983;49.966;8.052;2023-05-14T00:59:11;100667.00;;;11.10
11849;BMP180;5983;49.966;8.052;2023-05-14T01:01:38;100655.00;;;11.10
11849;BMP180;5983;49.966;8.052;2023-05-14T01:04:06;100663.00;;;11.00
11849;BMP180;5983;49.966;8.052;2023-05-14T01:06:43;100661.00;;;11.10
11849;BMP180;5983;49.966;8.052;2023-05-14T01:09:18;100657.00;;;11.10
11849;BMP180;5983;49.966;8.052;2023-05-14T01:11:53;100656.00;;;11.10
11849;BMP180;5983;49.966;8.052;2023-05-14T01:14:23;100655.00;;;11.10
11849;BMP180;5983;49.966;8.052;2023-05-14T01:16:57;100651.00;;;11.10
11849;BMP180;5983;49.966;8.052;2023-05-14T01:19:29;100655.00;;;11.10
11849;BMP180;5983;49.966;8.052;2023-05-14T01:22:00;100637.00;;;11.10
11849;BMP180;5983;49.966;8.052;2023-05-14T01:24:27;100639.00;;;11.10
11849;BMP180;5983;49.966;8.052;2023-05-14T01:26:58;100631.00;;;11.10
11849;BMP180;5983;49.966;8.052;2023-05-14T01:29:27;100640.00;;;11.00
11849;BMP180;5983;49.966;8.052;2023-05-14T01:31:56;100639.00;;;10.90
11849;BMP180;5983;49.966;8.052;2023-05-14T01:34:25;100643.00;;;10.90
11849;BMP180;5983;49.966;8.052;2023-05-14T01:36:55;100651.00;;;10.90
11849;BMP180;5983;49.966;8.052;2023-05-14T01:39:25;100641.00;;;10.90
11849;BMP180;5983;49.966;8.052;2023-05-14T01:41:53;100639.00;;;10.90
11849;BMP180;5983;49.966;8.052;2023-05-14T01:44:20;100640.00;;;10.80
11849;BMP180;5983;49.966;8.052;2023-05-14T01:46:47;100639.00;;;10.80
11849;BMP180;5983;49.966;8.052;2023-05-14T01:49:13;100646.00;;;10.80
11849;BMP180;5983;49.966;8.052;2023-05-14T01:51:42;100649.00;;;10.90
11849;BMP180;5983;49.966;8.052;2023-05-14T01:54:09;100651.00;;;10.80
11849;BMP180;5983;49.966;8.052;2023-05-14T01:56:37;100647.00;;;10.80
11849;BMP180;5983;49.966;8.052;2023-05-14T01:59:04;100642.00;;;10.80
11849;BMP180;5983;49.966;8.052;2023-05-14T02:01:30;100638.00;;;10.70
11849;BMP180;5983;49.966;8.052;2023-05-14T02:03:58;100647.00;;;10.70
11849;BMP180;5983;49.966;8.052;2023-05-14T02:06:25;100642.00;;;10.70
11849;BMP180;5983;49.966;8.052;2023-05-14T02:08:52;100644.00;;;10.60
11849;BMP180;5983;49.966;8.052;2023-05-14T02:11:19;100642.00;;;10.60
11849;BMP180;5983;49.966;8.052;2023-05-14T02:13:47;100647.00;;;10.60
11849;BMP180;5983;49.966;8.052;2023-05-14T02:16:14;100633.00;;;10.50
11849;BMP180;5983;49.966;8.052;2023-05-14T02:18:41;100631.00;;;10.40
11849;BMP180;5983;49.966;8.052;2023-05-14T02:21:07;100642.00;;;10.40
11849;BMP180;5983;49.966;8.052;2023-05-14T02:23:34;100640.00;;;10.40
11849;BMP180;5983;49.966;8.052;2023-05-14T02:26:01;100635.00;;;10.40
11849;BMP180;5983;49.966;8.052;2023-05-14T02:28:28;100639.00;;;10.40
11849;BMP180;5983;49.966;8.052;2023-05-14T02:30:58;100632.00;;;10.40
11849;BMP180;5983;49.966;8.052;2023-05-14T02:33:26;100632.00;;;10.30
11849;BMP180;5983;49.966;8.052;2023-05-14T02:35:53;100630.00;;;10.30
11849;BMP180;5983;49.966;8.052;2023-05-14T02:38:19;100625.00;;;10.20
11849;BMP180;5983;49.966;8.052;2023-05-14T02:40:46;100635.00;;;10.20
11849;BMP180;5983;49.966;8.052;2023-05-14T02:43:13;100631.00;;;10.20
11849;BMP180;5983;49.966;8.052;2023-05-14T02:45:40;100631.00;;;10.10
11849;BMP180;5983;49.966;8.052;2023-05-14T02:48:08;100621.00;;;10.10
11849;BMP180;5983;49.966;8.052;2023-05-14T02:50:34;100618.00;;;10.10
11849;BMP180;5983;49.966;8.052;2023-05-14T02:53:01;100616.00;;;10.00
11849;BMP180;5983;49.966;8.052;2023-05-14T02:55:28;100615.00;;;10.00
11849;BMP180;5983;49.966;8.052;2023-05-14T02:57:55;100620.00;;;10.00
11849;BMP180;5983;49.966;8.052;2023-05-14T03:00:22;100605.00;;;9.90
11849;BMP180;5983;49.966;8.052;2023-05-14T03:02:49;100622.00;;;9.90
11849;BMP180;5983;49.966;8.052;2023-05-14T03:05:17;100620.00;;;9.90
11849;BMP180;5983;49.966;8.052;2023-05-14T03:07:44;100618.00;;;9.90
11849;BMP180;5983;49.966;8.052;2023-05-14T03:10:11;100616.00;;;9.80
11849;BMP180;5983;49.966;8.052;2023-05-14T03:12:37;100608.00;;;9.80
11849;BMP180;5983;49.966;8.052;2023-05-14T03:15:05;100611.00;;;9.80
11849;BMP180;5983;49.966;8.052;2023-05-14T03:17:32;100617.00;;;9.80
11849;BMP180;5983;49.966;8.052;2023-05-14T03:19:59;100615.00;;;9.80
11849;BMP180;5983;49.966;8.052;2023-05-14T03:22:27;100615.00;;;9.70
11849;BMP180;5983;49.966;8.052;2023-05-14T03:24:53;100611.00;;;9.60
11849;BMP180;5983;49.966;8.052;2023-05-14T03:27:20;100613.00;;;9.60
11849;BMP180;5983;49.966;8.052;2023-05-14T03:29:47;100609.00;;;9.60
11849;BMP180;5983;49.966;8.052;2023-05-14T03:32:14;100616.00;;;9.60
11849;BMP180;5983;49.966;8.052;2023-05-14T03:34:40;100611.00;;;9.60
11849;BMP180;5983;49.966;8.052;2023-05-14T03:37:09;100616.00;;;9.60
11849;BMP180;5983;49.966;8.052;2023-05-14T03:39:37;100612.00;;;9.70
11849;BMP180;5983;49.966;8.052;2023-05-14T03:42:04;100614.00;;;9.70
11849;BMP180;5983;49.966;8.052;2023-05-14T03:44:30;100616.00;;;9.70
11849;BMP180;5983;49.966;8.052;2023-05-14T03:46:57;100613.00;;;9.70
11849;BMP180;5983;49.966;8.052;2023-05-14T03:49:24;100621.00;;;9.70
11849;BMP180;5983;49.966;8.052;2023-05-14T03:51:51;100613.00;;;9.70
11849;BMP180;5983;49.966;8.052;2023-05-14T03:54:17;100618.00;;;9.70
11849;BMP180;5983;49.966;8.052;2023-05-14T03:56:45;100618.00;;;9.80
11849;BMP180;5983;49.966;8.052;2023-05-14T03:59:12;100616.00;;;9.80
11849;BMP180;5983;49.966;8.052;2023-05-14T04:01:39;100617.00;;;9.80
11849;BMP180;5983;49.966;8.052;2023-05-14T04:04:05;100618.00;;;9.80
11849;BMP180;5983;49.966;8.052;2023-05-14T04:06:32;100619.00;;;9.90
11849;BMP180;5983;49.966;8.052;2023-05-14T04:08:59;100614.00;;;9.90
11849;BMP180;5983;49.966;8.052;2023-05-14T04:11:26;100610.00;;;9.90
11849;BMP180;5983;49.966;8.052;2023-05-14T04:13:54;100609.00;;;10.00
11849;BMP180;5983;49.966;8.052;2023-05-14T04:16:20;100609.00;;;10.00
11849;BMP180;5983;49.966;8.052;2023-05-14T04:18:47;100611.00;;;10.00
11849;BMP180;5983;49.966;8.052;2023-05-14T04:21:14;100625.00;;;10.00
11849;BMP180;5983;49.966;8.052;2023-05-14T04:23:41;100616.00;;;10.10
11849;BMP180;5983;49.966;8.052;2023-05-14T04:26:07;100615.00;;;10.10
11849;BMP180;5983;49.966;8.052;2023-05-14T04:28:34;100612.00;;;10.20
11849;BMP180;5983;49.966;8.052;2023-05-14T04:31:02;100611.00;;;10.20
11849;BMP180;5983;49.966;8.052;2023-05-14T04:33:29;100612.00;;;10.30
11849;BMP180;5983;49.966;8.052;2023-05-14T04:35:56;100621.00;;;10.30
11849;BMP180;5983;49.966;8.052;2023-05-14T04:38:22;100620.00;;;10.40
11849;BMP180;5983;49.966;8.052;2023-05-14T04:40:49;100626.00;;;10.50
11849;BMP180;5983;49.966;8.052;2023-05-14T04:43:16;100625.00;;;10.50
11849;BMP180;5983;49.966;8.052;2023-05-14T04:45:42;100625.00;;;10.60
11849;BMP180;5983;49.966;8.052;2023-05-14T04:48:11;100626.00;;;10.70
11849;BMP180;5983;49.966;8.052;2023-05-14T04:50:37;100619.00;;;10.80
11849;BMP180;5983;49.966;8.052;2023-05-14T04:53:04;100619.00;;;10.80
11849;BMP180;5983;49.966;8.052;2023-05-14T04:55:31;100628.00;;;10.90
11849;BMP180;5983;49.966;8.052;2023-05-14T04:57:57;100627.00;;;11.00
11849;BMP180;5983;49.966;8.052;2023-05-14T05:00:24;100634.00;;;11.20
11849;BMP180;5983;49.966;8.052;2023-05-14T05:02:51;100632.00;;;11.30
11849;BMP180;5983;49.966;8.052;2023-05-14T05:05:19;100639.00;;;11.50
11849;BMP180;5983;49.966;8.052;2023-05-14T05:07:46;100636.00;;;11.60
11849;BMP180;5983;49.966;8.052;2023-05-14T05:10:13;100634.00;;;11.80
11849;BMP180;5983;49.966;8.052;2023-05-14T05:12:40;100639.00;;;11.90
11849;BMP180;5983;49.966;8.052;2023-05-14T05:15:07;100639.00;;;12.00
11849;BMP180;5983;49.966;8.052;2023-05-14T05:17:34;100635.00;;;12.00
11849;BMP180;5983;49.966;8.052;2023-05-14T05:20:01;100633.00;;;12.10
11849;BMP180;5983;49.966;8.052;2023-05-14T05:22:30;100633.00;;;12.10
11849;BMP180;5983;49.966;8.052;2023-05-14T05:24:57;100632.00;;;12.20
11849;BMP180;5983;49.966;8.052;2023-05-14T05:27:24;100639.00;;;12.20
11849;BMP180;5983;49.966;8.052;2023-05-14T05:29:51;100621.00;;;12.30
11849;BMP180;5983;49.966;8.052;2023-05-14T05:32:17;100641.00;;;12.40
11849;BMP180;5983;49.966;8.052;2023-05-14T05:34:44;100630.00;;;12.40
11849;BMP180;5983;49.966;8.052;2023-05-14T05:37:11;100634.00;;;12.50
11849;BMP180;5983;49.966;8.052;2023-05-14T05:39:40;100648.00;;;12.60
11849;BMP180;5983;49.966;8.052;2023-05-14T05:42:07;100636.00;;;12.70
11849;BMP180;5983;49.966;8.052;2023-05-14T05:44:34;100633.00;;;12.80
11849;BMP180;5983;49.966;8.052;2023-05-14T05:47:01;100637.00;;;13.00
11849;BMP180;5983;49.966;8.052;2023-05-14T05:49:27;100638.00;;;13.10
11849;BMP180;5983;49.966;8.052;2023-05-14T05:51:54;100634.00;;;13.20
11849;BMP180;5983;49.966;8.052;2023-05-14T05:54:22;100645.00;;;13.30
11849;BMP180;5983;49.966;8.052;2023-05-14T05:56:50;100650.00;;;13.40
11849;BMP180;5983;49.966;8.052;2023-05-14T05:59:17;100638.00;;;13.50
11849;BMP180;5983;49.966;8.052;2023-05-14T06:01:44;100643.00;;;13.50
11849;BMP180;5983;49.966;8.052;2023-05-14T06:04:10;100649.00;;;13.60
11849;BMP180;5983;49.966;8.052;2023-05-14T06:06:37;100651.00;;;13.70
11849;BMP180;5983;49.966;8.052;2023-05-14T06:09:04;100652.00;;;13.80
11849;BMP180;5983;49.966;8.052;2023-05-14T06:11:31;100650.00;;;13.90
11849;BMP180;5983;49.966;8.052;2023-05-14T06:13:59;100653.00;;;13.90
11849;BMP180;5983;49.966;8.052;2023-05-14T06:16:26;100654.00;;;14.00
11849;BMP180;5983;49.966;8.052;2023-05-14T06:18:53;100650.00;;;14.10
11849;BMP180;5983;49.966;8.052;2023-05-14T06:21:20;100648.00;;;14.10
11849;BMP180;5983;49.966;8.052;2023-05-14T06:23:47;100649.00;;;14.20
11849;BMP180;5983;49.966;8.052;2023-05-14T06:26:14;100644.00;;;14.30
11849;BMP180;5983;49.966;8.052;2023-05-14T06:28:40;100643.00;;;14.40
11849;BMP180;5983;49.966;8.052;2023-05-14T06:31:08;100655.00;;;14.60
11849;BMP180;5983;49.966;8.052;2023-05-14T06:33:35;100649.00;;;14.80
11849;BMP180;5983;49.966;8.052;2023-05-14T06:36:03;100644.00;;;14.90
11849;BMP180;5983;49.966;8.052;2023-05-14T06:38:30;100643.00;;;15.00
11849;BMP180;5983;49.966;8.052;2023-05-14T06:40:57;100646.00;;;15.20
11849;BMP180;5983;49.966;8.052;2023-05-14T06:43:24;100646.00;;;15.30
11849;BMP180;5983;49.966;8.052;2023-05-14T06:45:51;100647.00;;;15.50
11849;BMP180;5983;49.966;8.052;2023-05-14T06:48:19;100655.00;;;15.60
11849;BMP180;5983;49.966;8.052;2023-05-14T06:50:47;100657.00;;;15.80
11849;BMP180;5983;49.966;8.052;2023-05-14T06:53:14;100647.00;;;15.90
11849;BMP180;5983;49.966;8.052;2023-05-14T06:55:41;100655.00;;;16.10
11849;BMP180;5983;49.966;8.052;2023-05-14T06:58:08;100649.00;;;16.30
11849;BMP180;5983;49.966;8.052;2023-05-14T07:00:35;100647.00;;;16.40
11849;BMP180;5983;49.966;8.052;2023-05-14T07:03:01;100654.00;;;16.40
11849;BMP180;5983;49.966;8.052;2023-05-14T07:05:29;100651.00;;;16.50
11849;BMP180;5983;49.966;8.052;2023-05-14T07:07:56;100645.00;;;16.50
11849;BMP180;5983;49.966;8.052;2023-05-14T07:10:23;100651.00;;;16.70
11849;BMP180;5983;49.966;8.052;2023-05-14T07:12:50;100648.00;;;16.80
11849;BMP180;5983;49.966;8.052;2023-05-14T07:15:17;100639.00;;;17.10
11849;BMP180;5983;49.966;8.052;2023-05-14T07:17:44;100646.00;;;17.30
11849;BMP180;5983;49.966;8.052;2023-05-14T07:20:11;100646.00;;;17.60
11849;BMP180;5983;49.966;8.052;2023-05-14T07:22:39;100643.00;;;17.90
11849;BMP180;5983;49.966;8.052;2023-05-14T07:25:07;100647.00;;;18.00
11849;BMP180;5983;49.966;8.052;2023-05-14T07:27:34;100641.00;;;18.10
11849;BMP180;5983;49.966;8.052;2023-05-14T07:30:00;100638.00;;;18.10
11849;BMP180;5983;49.966;8.052;2023-05-14T07:32:27;100636.00;;;18.20
11849;BMP180;5983;49.966;8.052;2023-05-14T07:34:54;100631.00;;;18.40
11849;BMP180;5983;49.966;8.052;2023-05-14T07:37:21;100623.00;;;18.60
11849;BMP180;5983;49.966;8.052;2023-05-14T07:39:51;100632.00;;;18.70
11849;BMP180;5983;49.966;8.052;2023-05-14T07:42:18;100629.00;;;18.80
11849;BMP180;5983;49.966;8.052;2023-05-14T07:44:45;100609.00;;;18.80
11849;BMP180;5983;49.966;8.052;2023-05-14T07:47:11;100623.00;;;18.90
11849;BMP180;5983;49.966;8.052;2023-05-14T07:49:38;100628.00;;;18.90
11849;BMP180;5983;49.966;8.052;2023-05-14T07:52:05;100626.00;;;19.10
11849;BMP180;5983;49.966;8.052;2023-05-14T07:54:31;100627.00;;;19.20
11849;BMP180;5983;49.966;8.052;2023-05-14T07:57:00;100631.00;;;19.40
11849;BMP180;5983;49.966;8.052;2023-05-14T07:59:26;100627.00;;;19.50
11849;BMP180;5983;49.966;8.052;2023-05-14T08:01:53;100615.00;;;19.60
11849;BMP180;5983;49.966;8.052;2023-05-14T08:04:20;100620.00;;;19.50
11849;BMP180;5983;49.966;8.052;2023-05-14T08:06:48;100618.00;;;19.70
11849;BMP180;5983;49.966;8.052;2023-05-14T08:09:14;100619.00;;;20.00
11849;BMP180;5983;49.966;8.052;2023-05-14T08:11:41;100623.00;;;20.10
11849;BMP180;5983;49.966;8.052;2023-05-14T08:14:09;100613.00;;;20.10
11849;BMP180;5983;49.966;8.052;2023-05-14T08:16:36;100615.00;;;20.20
11849;BMP180;5983;49.966;8.052;2023-05-14T08:19:03;100623.00;;;20.20
11849;BMP180;5983;49.966;8.052;2023-05-14T08:21:29;100625.00;;;20.10
11849;BMP180;5983;49.966;8.052;2023-05-14T08:23:57;100621.00;;;20.20
11849;BMP180;5983;49.966;8.052;2023-05-14T08:26:23;100605.00;;;20.30
11849;BMP180;5983;49.966;8.052;2023-05-14T08:28:51;100608.00;;;20.40
11849;BMP180;5983;49.966;8.052;2023-05-14T08:31:19;100607.00;;;20.30
11849;BMP180;5983;49.966;8.052;2023-05-14T08:33:46;100607.00;;;20.30
11849;BMP180;5983;49.966;8.052;2023-05-14T08:36:13;100605.00;;;20.30
11849;BMP180;5983;49.966;8.052;2023-05-14T08:38:39;100604.00;;;20.30
11849;BMP180;5983;49.966;8.052;2023-05-14T08:41:09;100600.00;;;20.30
11849;BMP180;5983;49.966;8.052;2023-05-14T08:43:43;100602.00;;;20.40
11849;BMP180;5983;49.966;8.052;2023-05-14T08:46:12;100611.00;;;20.50
11849;BMP180;5983;49.966;8.052;2023-05-14T08:48:41;100600.00;;;20.50
11849;BMP180;5983;49.966;8.052;2023-05-14T08:51:08;100601.00;;;20.50
11849;BMP180;5983;49.966;8.052;2023-05-14T08:53:35;100593.00;;;20.50
11849;BMP180;5983;49.966;8.052;2023-05-14T08:56:05;100590.00;;;20.60
11849;BMP180;5983;49.966;8.052;2023-05-14T08:58:32;100587.00;;;20.50
11849;BMP180;5983;49.966;8.052;2023-05-14T09:00:59;100583.00;;;20.50
11849;BMP180;5983;49.966;8.052;2023-05-14T09:03:26;100576.00;;;20.80
11849;BMP180;5983;49.966;8.052;2023-05-14T09:05:54;100579.00;;;21.10
11849;BMP180;5983;49.966;8.052;2023-05-14T09:08:21;100593.00;;;21.30
11849;BMP180;5983;49.966;8.052;2023-05-14T09:10:48;100576.00;;;21.30
11849;BMP180;5983;49.966;8.052;2023-05-14T09:13:15;100574.00;;;21.10
11849;BMP180;5983;49.966;8.052;2023-05-14T09:15:41;100572.00;;;21.00
11849;BMP180;5983;49.966;8.052;2023-05-14T09:18:08;100562.00;;;21.00
11849;BMP180;5983;49.966;8.052;2023-05-14T09:20:35;100575.00;;;21.20
11849;BMP180;5983;49.966;8.052;2023-05-14T09:23:04;100562.00;;;21.50
11849;BMP180;5983;49.966;8.052;2023-05-14T09:25:31;100569.00;;;21.90
11849;BMP180;5983;49.966;8.052;2023-05-14T09:27:58;100565.00;;;22.20
11849;BMP180;5983;49.966;8.052;2023-05-14T09:30:25;100567.00;;;22.40
11849;BMP180;5983;49.966;8.052;2023-05-14T09:32:53;100565.00;;;22.60
11849;BMP180;5983;49.966;8.052;2023-05-14T09:35:21;100550.00;;;22.80
11849;BMP180;5983;49.966;8.052;2023-05-14T09:37:49;100554.00;;;22.90
11849;BMP180;5983;49.966;8.052;2023-05-14T09:40:18;100563.00;;;22.70
11849;BMP180;5983;49.966;8.052;2023-05-14T09:42:46;100562.00;;;22.60
11849;BMP180;5983;49.966;8.052;2023-05-14T09:45:13;100557.00;;;22.50
11849;BMP180;5983;49.966;8.052;2023-05-14T09:47:40;100567.00;;;22.40
11849;BMP180;5983;49.966;8.052;2023-05-14T09:50:07;100557.00;;;22.30
11849;BMP180;5983;49.966;8.052;2023-05-14T09:52:34;100554.00;;;22.10
11849;BMP180;5983;49.966;8.052;2023-05-14T09:55:02;100553.00;;;22.00
11849;BMP180;5983;49.966;8.052;2023-05-14T09:57:30;100548.00;;;21.80
11849;BMP180;5983;49.966;8.052;2023-05-14T09:59:56;100549.00;;;21.70
11849;BMP180;5983;49.966;8.052;2023-05-14T10:02:24;100553.00;;;21.60
11849;BMP180;5983;49.966;8.052;2023-05-14T10:04:53;100555.00;;;21.60
11849;BMP180;5983;49.966;8.052;2023-05-14T10:07:26;100543.00;;;21.70
11849;BMP180;5983;49.966;8.052;2023-05-14T10:09:58;100545.00;;;21.70
11849;BMP180;5983;49.966;8.052;2023-05-14T10:12:30;100549.00;;;21.90
11849;BMP180;5983;49.966;8.052;2023-05-14T10:15:00;100538.00;;;22.10
11849;BMP180;5983;49.966;8.052;2023-05-14T10:17:31;100551.00;;;22.10
11849;BMP180;5983;49.966;8.052;2023-05-14T10:19:59;100541.00;;;21.90
11849;BMP180;5983;49.966;8.052;2023-05-14T10:22:31;100538.00;;;21.80
11849;BMP180;5983;49.966;8.052;2023-05-14T10:24:59;100543.00;;;21.60
11849;BMP180;5983;49.966;8.052;2023-05-14T10:27:26;100541.00;;;21.50
11849;BMP180;5983;49.966;8.052;2023-05-14T10:29:54;100539.00;;;21.30
11849;BMP180;5983;49.966;8.052;2023-05-14T10:32:23;100541.00;;;21.30
11849;BMP180;5983;49.966;8.052;2023-05-14T10:34:51;100537.00;;;21.30
11849;BMP180;5983;49.966;8.052;2023-05-14T10:37:20;100540.00;;;21.30
11849;BMP180;5983;49.966;8.052;2023-05-14T10:39:49;100533.00;;;21.10
11849;BMP180;5983;49.966;8.052;2023-05-14T10:42:17;100530.00;;;20.90
11849;BMP180;5983;49.966;8.052;2023-05-14T10:44:50;100532.00;;;20.80
11849;BMP180;5983;49.966;8.052;2023-05-14T10:47:19;100541.00;;;20.70
11849;BMP180;5983;49.966;8.052;2023-05-14T10:49:46;100537.00;;;20.60
11849;BMP180;5983;49.966;8.052;2023-05-14T10:52:16;100531.00;;;20.60
11849;BMP180;5983;49.966;8.052;2023-05-14T10:54:47;100535.00;;;20.50
11849;BMP180;5983;49.966;8.052;2023-05-14T10:57:16;100533.00;;;20.50
11849;BMP180;5983;49.966;8.052;2023-05-14T10:59:43;100533.00;;;20.30
11849;BMP180;5983;49.966;8.052;2023-05-14T11:02:30;100533.00;;;20.10
11849;BMP180;5983;49.966;8.052;2023-05-14T11:04:58;100529.00;;;20.10
11849;BMP180;5983;49.966;8.052;2023-05-14T11:07:29;100525.00;;;20.20
11849;BMP180;5983;49.966;8.052;2023-05-14T11:10:04;100520.00;;;20.30
11849;BMP180;5983;49.966;8.052;2023-05-14T11:12:31;100517.00;;;20.50
11849;BMP180;5983;49.966;8.052;2023-05-14T11:14:59;100527.00;;;20.70
11849;BMP180;5983;49.966;8.052;2023-05-14T11:17:27;100515.00;;;20.90
11849;BMP180;5983;49.966;8.052;2023-05-14T11:19:56;100508.00;;;21.10
11849;BMP180;5983;49.966;8.052;2023-05-14T11:22:23;100524.00;;;21.30
11849;BMP180;5983;49.966;8.052;2023-05-14T11:24:50;100510.00;;;21.40
11849;BMP180;5983;49.966;8.052;2023-05-14T11:27:17;100518.00;;;21.40
11849;BMP180;5983;49.966;8.052;2023-05-14T11:29:45;100515.00;;;21.60
11849;BMP180;5983;49.966;8.052;2023-05-14T11:32:12;100515.00;;;21.60
11849;BMP180;5983;49.966;8.052;2023-05-14T11:34:39;100509.00;;;21.70
11849;BMP180;5983;49.966;8.052;2023-05-14T11:37:08;100501.00;;;22.00
11849;BMP180;5983;49.966;8.052;2023-05-14T11:39:35;100512.00;;;22.10
11849;BMP180;5983;49.966;8.052;2023-05-14T11:42:03;100505.00;;;22.00
11849;BMP180;5983;49.966;8.052;2023-05-14T11:44:30;100514.00;;;22.20
11849;BMP180;5983;49.966;8.052;2023-05-14T11:46:58;100502.00;;;22.20
11849;BMP180;5983;49.966;8.052;2023-05-14T11:49:26;100494.00;;;22.30
11849;BMP180;5983;49.966;8.052;2023-05-14T11:51:57;100489.00;;;22.40
11849;BMP180;5983;49.966;8.052;2023-05-14T11:54:26;100490.00;;;22.70
11849;BMP180;5983;49.966;8.052;2023-05-14T11:56:53;100492.00;;;22.80
11849;BMP180;5983;49.966;8.052;2023-05-14T11:59:20;100498.00;;;22.70
11849;BMP180;5983;49.966;8.052;2023-05-14T12:01:47;100492.00;;;22.60
11849;BMP180;5983;49.966;8.052;2023-05-14T12:04:14;100488.00;;;22.50
11849;BMP180;5983;49.966;8.052;2023-05-14T12:06:43;100489.00;;;22.30
11849;BMP180;5983;49.966;8.052;2023-05-14T12:09:11;100494.00;;;22.10
11849;BMP180;5983;49.966;8.052;2023-05-14T12:11:42;100492.00;;;22.00
11849;BMP180;5983;49.966;8.052;2023-05-14T12:14:19;100490.00;;;22.00
11849;BMP180;5983;49.966;8.052;2023-05-14T12:19:47;100478.00;;;22.30
11849;BMP180;5983;49.966;8.052;2023-05-14T12:22:16;100476.00;;;22.30
11849;BMP180;5983;49.966;8.052;2023-05-14T12:24:51;100471.00;;;22.50
11849;BMP180;5983;49.966;8.052;2023-05-14T12:27:21;100470.00;;;22.80
11849;BMP180;5983;49.966;8.052;2023-05-14T12:29:49;100465.00;;;23.10
11849;BMP180;5983;49.966;8.052;2023-05-14T12:32:18;100462.00;;;23.20
11849;BMP180;5983;49.966;8.052;2023-05-14T12:34:44;100466.00;;;23.20
11849;BMP180;5983;49.966;8.052;2023-05-14T12:37:11;100468.00;;;23.10
11849;BMP180;5983;49.966;8.052;2023-05-14T12:39:38;100467.00;;;23.00
11849;BMP180;5983;49.966;8.052;2023-05-14T12:42:05;100454.00;;;22.80
11849;BMP180;5983;49.966;8.052;2023-05-14T12:44:33;100448.00;;;22.60
11849;BMP180;5983;49.966;8.052;2023-05-14T12:47:00;100448.00;;;22.50
11849;BMP180;5983;49.966;8.052;2023-05-14T12:49:27;100439.00;;;22.30
11849;BMP180;5983;49.966;8.052;2023-05-14T12:51:54;100447.00;;;22.20
11849;BMP180;5983;49.966;8.052;2023-05-14T12:54:20;100429.00;;;22.00
11849;BMP180;5983;49.966;8.052;2023-05-14T12:56:47;100425.00;;;22.00
11849;BMP180;5983;49.966;8.052;2023-05-14T12:59:14;100427.00;;;21.90
11849;BMP180;5983;49.966;8.052;2023-05-14T13:01:42;100421.00;;;21.80
11849;BMP180;5983;49.966;8.052;2023-05-14T13:04:09;100420.00;;;21.80
11849;BMP180;5983;49.966;8.052;2023-05-14T13:06:37;100417.00;;;21.90
11849;BMP180;5983;49.966;8.052;2023-05-14T13:09:04;100419.00;;;22.00
11849;BMP180;5983;49.966;8.052;2023-05-14T13:11:31;100413.00;;;22.20
11849;BMP180;5983;49.966;8.052;2023-05-14T13:13:58;100414.00;;;22.50
11849;BMP180;5983;49.966;8.052;2023-05-14T13:16:25;100410.00;;;22.60
11849;BMP180;5983;49.966;8.052;2023-05-14T13:18:54;100402.00;;;22.70
11849;BMP180;5983;49.966;8.052;2023-05-14T13:21:21;100405.00;;;22.60
11849;BMP180;5983;49.966;8.052;2023-05-14T13:23:47;100396.00;;;22.70
11849;BMP180;5983;49.966;8.052;2023-05-14T13:26:14;100394.00;;;22.80
11849;BMP180;5983;49.966;8.052;2023-05-14T13:28:41;100388.00;;;22.90
11849;BMP180;5983;49.966;8.052;2023-05-14T13:31:09;100386.00;;;23.00
11849;BMP180;5983;49.966;8.052;2023-05-14T13:33:39;100389.00;;;22.80
11849;BMP180;5983;49.966;8.052;2023-05-14T13:36:08;100385.00;;;22.90
11849;BMP180;5983;49.966;8.052;2023-05-14T13:38:36;100380.00;;;23.10
11849;BMP180;5983;49.966;8.052;2023-05-14T13:41:03;100389.00;;;23.20
11849;BMP180;5983;49.966;8.052;2023-05-14T13:43:31;100377.00;;;23.40
11849;BMP180;5983;49.966;8.052;2023-05-14T13:45:58;100374.00;;;23.30
11849;BMP180;5983;49.966;8.052;2023-05-14T13:48:26;100371.00;;;23.20
11849;BMP180;5983;49.966;8.052;2023-05-14T13:50:53;100371.00;;;23.00
11849;BMP180;5983;49.966;8.052;2023-05-14T13:53:22;100360.00;;;22.80
11849;BMP180;5983;49.966;8.052;2023-05-14T13:55:49;100361.00;;;22.60
11849;BMP180;5983;49.966;8.052;2023-05-14T13:58:21;100365.00;;;22.30
11849;BMP180;5983;49.966;8.052;2023-05-14T14:00:47;100352.00;;;22.10
11849;BMP180;5983;49.966;8.052;2023-05-14T14:03:14;100354.00;;;22.20
11849;BMP180;5983;49.966;8.052;2023-05-14T14:05:41;100349.00;;;22.10
11849;BMP180;5983;49.966;8.052;2023-05-14T14:08:08;100349.00;;;22.10
11849;BMP180;5983;49.966;8.052;2023-05-14T14:10:36;100350.00;;;22.10
11849;BMP180;5983;49.966;8.052;2023-05-14T14:13:03;100339.00;;;21.90